- Ingen væradvarsler   -   

Nearby METAR Reports

 

KSJC - San Jose, California, USA
Distance from station: NØ 14km
Oppdatert: 04/12/2021 01:53
Mist, Delvis skyet
Mist, Delvis skyet
 Vind fra NV
Vind: NV 9 km/h
Temperatur: 11°C
Duggpunkt: 9°C
Fuktighet: 88%
Barometer: 1019 hPa
Oversikt: Mist
Clouds: Delvis skyet
Visibility: 8 km
Cloud details: Few Clouds 0 m
Delvis skyet 396 m
2021/12/04 00:53 KSJC 040053Z 32005KT 5SM BR FEW000 SCT013 11/09 A3009 RMK AO2 SLP188 BR FEW000 T01110089
KNUQ - Moffett Nas/Mtn, California, USA
Distance from station: N 14km
Oppdatert: 04/12/2021 01:55
Haze, Overskyet
Haze, Overskyet
 Vind fra N
Vind: N 7 km/h
Temperatur: 13°C
Duggpunkt: 10°C
Fuktighet: 82%
Barometer: 1019 hPa
Oversikt: Haze
Clouds: Overskyet
Visibility: 6 km
Cloud details: Overskyet 427 m
2021/12/04 00:55 KNUQ 040055Z AUTO 36004KT 4SM HZ OVC014 13/10 A3009 RMK AO2
 
KPAO - Palo Alto, California, USA
Distance from station: NNV 23km
Oppdatert: 04/12/2021 01:47
Overskyet
Overskyet
 Vind fra N
Vind: N 11 km/h
Temperatur: 12°C
Duggpunkt: 10°C
Fuktighet: 88%
Barometer: 1019.3 hPa
Clouds: Overskyet
Visibility: 6 km
Cloud details: Overskyet 305 m
2021/12/04 00:47 KPAO 040047Z 01006KT 4SM OVC010 12/10 A3010 BR
KRHV - San Jose/Reid, California, USA
Distance from station: ØNØ 19km
Oppdatert: 04/12/2021 02:00
Haze, Delvis skyet
Haze, Delvis skyet
 Vind fra NV
Vind: NV 7 km/h
Temperatur: 12°C
Duggpunkt: 9°C
Fuktighet: 82%
Barometer: 1019.3 hPa
Oversikt: Haze
Clouds: Delvis skyet
Visibility: 3 km
Cloud details: Delvis skyet 366 m
2021/12/04 01:00 KRHV 040100Z 31004KT 2SM HZ SCT012 12/09 A3010
 
KOAK - Oakland, California, USA
Distance from station: NNV 50km
Oppdatert: 04/12/2021 01:53
Overskyet
Overskyet
 Vind fra NNV
Vind: NNV 7 km/h
Temperatur: 12°C
Duggpunkt: 9°C
Fuktighet: 82%
Barometer: 1019 hPa
Clouds: Overskyet
Visibility: 14 km
Cloud details: Overskyet 457 m
2021/12/04 00:53 KOAK 040053Z 33004KT 9SM OVC015 12/09 A3009 RMK AO2 SLP190 T01220089
KSQL - San Carlos Airpo, California, USA
Distance from station: NV 34km
Oppdatert: 04/12/2021 01:47
Haze, Overskyet
Haze, Overskyet
 Vind fra calm
Vind: Stille
Temperatur: 13°C
Duggpunkt: 11°C
Fuktighet: 88%
Barometer: 1019.3 hPa
Oversikt: Haze
Clouds: Overskyet
Visibility: 5 km
Cloud details: Overskyet 457 m
2021/12/04 00:47 KSQL 040047Z 00000KT 3SM HZ OVC015 13/11 A3010
 
KSFO - San Francisco, California, USA
Distance from station: NV 49km
Oppdatert: 04/12/2021 01:56
Overskyet
Overskyet
 Vind fra calm
Vind: Stille
Temperatur: 13°C
Duggpunkt: 9°C
Fuktighet: 77%
Barometer: 1018.6 hPa
Clouds: Overskyet
Visibility: 14 km
Cloud details: Overskyet 488 m
2021/12/04 00:56 KSFO 040056Z 00000KT 9SM OVC016 13/09 A3008 RMK AO2 SLP187 T01330094
KE16 - San Martin, California, USA
Distance from station: ØSØ 43km
Oppdatert: 04/12/2021 01:55
Mist, Klart
Mist, Klart
 Vind fra ØSØ
Vind: ØSØ 7 km/h
Temperatur: 10°C
Wind Chill: 9°C
Duggpunkt: 9°C
Fuktighet: 94%
Barometer: 1019.6 hPa
Oversikt: Mist
Clouds: Klart
Visibility: 10 km
2021/12/04 00:55 KE16 040055Z AUTO 11004KT 6SM BR CLR 10/09 A3011 RMK AO2 PWINO PNO
 
KWVI - Watsonville, California, USA
Distance from station: SSØ 44km
Oppdatert: 04/12/2021 01:53
Overskyet
Overskyet
 Vind fra V
Vind: V 7 km/h
Temperatur: 12°C
Duggpunkt: 9°C
Fuktighet: 82%
Barometer: 1019.6 hPa
Clouds: Overskyet
Visibility: 16 km
Cloud details: Overskyet 396 m
2021/12/04 00:53 KWVI 040053Z AUTO 26004KT 10SM OVC013 12/09 A3011 RMK AO2 SLP195 T01170094
KHAF - Half Moon Bay, California, USA
Distance from station: VNV 50km
Oppdatert: 04/12/2021 01:55
Overskyet
Overskyet
 Vind fra SV
Vind: SV 7 km/h
Temperatur: 12°C
Duggpunkt: 10°C
Fuktighet: 88%
Barometer: 1019 hPa
Clouds: Overskyet
Visibility: 11 km
Cloud details: Overskyet 457 m
2021/12/04 00:55 KHAF 040055Z AUTO 22004KT 7SM OVC015 12/10 A3009 RMK AO2
 
KHWD - Hayward, California, USA
Distance from station: N 44km
Oppdatert: 04/12/2021 01:54
Haze, Overskyet
Haze, Overskyet
 Vind fra SV
Vind: SV 6 km/h
Temperatur: 13°C
Duggpunkt: 9°C
Fuktighet: 77%
Barometer: 1019 hPa
Oversikt: Haze
Clouds: Overskyet
Visibility: 4 km
Cloud details: Overskyet 457 m
2021/12/04 00:54 KHWD 040054Z 22003KT 2 1/2SM HZ OVC015 13/09 A3009 RMK AO2 SLP198 T01280089
KLVK - Livermore, California, USA
Distance from station: NNØ 51km
Oppdatert: 04/12/2021 02:00
Mist, Overskyet
Mist, Overskyet
 Vind fra S
Vind: S 6 km/h
Temperatur: 12°C
Duggpunkt: 10°C
Fuktighet: 88%
Barometer: 1018.6 hPa
Oversikt: Mist
Clouds: Overskyet
Visibility: 4 km
Cloud details: Overskyet 335 m
2021/12/04 01:00 KLVK 040100Z 19003KT 2 1/2SM BR OVC011 12/10 A3008 RMK AO2 T01220100